createdAt,value
2023-01-05T00:01:28.309Z,3.90
2023-01-05T00:03:55.749Z,3.33
2023-01-05T00:06:23.100Z,2.22
2023-01-05T00:08:50.401Z,2.67
2023-01-05T00:11:41.890Z,2.42
2023-01-05T00:14:35.863Z,3.05
2023-01-05T00:17:22.339Z,2.75
2023-01-05T00:20:08.220Z,2.00
2023-01-05T00:22:46.747Z,2.70
2023-01-05T00:25:20.362Z,2.83
2023-01-05T00:27:51.201Z,2.50
2023-01-05T00:30:26.125Z,3.05
2023-01-05T00:32:53.490Z,3.42
2023-01-05T00:35:21.282Z,2.40
2023-01-05T00:37:49.353Z,3.25
2023-01-05T00:40:19.645Z,2.33
2023-01-05T00:45:16.662Z,2.55
2023-01-05T00:47:44.108Z,2.97
2023-01-05T00:50:15.260Z,2.75
2023-01-05T00:52:42.594Z,3.70
2023-01-05T00:55:09.951Z,3.63
2023-01-05T00:57:37.345Z,2.72
2023-01-05T01:00:07.364Z,3.45
2023-01-05T01:05:02.342Z,2.42
2023-01-05T01:07:31.106Z,3.50
2023-01-05T01:09:58.422Z,2.75
2023-01-05T01:12:25.837Z,2.45
2023-01-05T01:14:53.123Z,4.50
2023-01-05T01:17:20.448Z,2.42
2023-01-05T01:19:47.711Z,3.63
2023-01-05T01:22:15.459Z,3.63
2023-01-05T01:24:42.837Z,3.10
2023-01-05T01:27:11.825Z,2.40
2023-01-05T01:29:40.356Z,3.22
2023-01-05T01:32:08.881Z,3.38
2023-01-05T01:34:36.408Z,3.13
2023-01-05T01:37:03.856Z,3.33
2023-01-05T01:39:37.147Z,3.25
2023-01-05T01:42:16.390Z,2.53
2023-01-05T01:44:52.198Z,3.13
2023-01-05T01:47:41.884Z,2.60
2023-01-05T01:50:16.236Z,2.50
2023-01-05T01:52:45.794Z,3.33
2023-01-05T01:55:13.147Z,4.67
2023-01-05T01:57:41.145Z,3.10
2023-01-05T02:00:10.402Z,2.83
2023-01-05T02:02:51.210Z,3.67
2023-01-05T02:05:26.197Z,2.65
2023-01-05T02:07:53.524Z,3.63
2023-01-05T02:10:53.683Z,4.22
2023-01-05T02:13:55.946Z,3.22
2023-01-05T02:16:58.837Z,2.97
2023-01-05T02:20:01.613Z,3.53
2023-01-05T02:22:43.461Z,4.53
2023-01-05T02:25:29.512Z,3.45
2023-01-05T02:27:59.919Z,4.03
2023-01-05T02:30:50.215Z,3.47
2023-01-05T02:33:18.300Z,3.85
2023-01-05T02:35:45.678Z,3.97
2023-01-05T02:38:33.496Z,4.65
2023-01-05T02:41:16.745Z,3.30
2023-01-05T02:46:12.071Z,3.58
2023-01-05T02:48:40.728Z,3.55
2023-01-05T02:51:14.465Z,3.30
2023-01-05T02:53:46.395Z,3.72
2023-01-05T02:56:13.651Z,3.40
2023-01-05T02:58:45.909Z,3.58
2023-01-05T03:01:34.536Z,3.47
2023-01-05T03:04:13.451Z,3.72
2023-01-05T03:06:49.084Z,3.42
2023-01-05T03:09:20.140Z,3.47
2023-01-05T03:12:28.953Z,3.20
2023-01-05T03:15:03.678Z,3.85
2023-01-05T03:17:41.160Z,3.47
2023-01-05T03:20:09.599Z,2.85
2023-01-05T03:22:56.653Z,3.38
2023-01-05T03:25:44.169Z,3.95
2023-01-05T03:28:38.159Z,3.53
2023-01-05T03:31:28.383Z,3.50
2023-01-05T03:34:14.704Z,3.40
2023-01-05T03:36:50.262Z,4.00
2023-01-05T03:39:20.529Z,3.35
2023-01-05T03:41:48.921Z,3.13
2023-01-05T03:44:16.374Z,2.80
2023-01-05T03:46:44.279Z,3.10
2023-01-05T03:49:11.828Z,2.58
2023-01-05T03:51:41.917Z,4.10
2023-01-05T03:54:10.763Z,4.95
2023-01-05T03:56:39.251Z,3.15
2023-01-05T03:59:07.265Z,2.85
2023-01-05T04:01:36.750Z,2.40
2023-01-05T04:04:04.713Z,3.92
2023-01-05T04:06:32.037Z,3.08
2023-01-05T04:09:00.083Z,3.50
2023-01-05T04:11:27.879Z,3.55
2023-01-05T04:14:02.167Z,2.88
2023-01-05T04:16:29.713Z,2.80
2023-01-05T04:19:00.901Z,3.55
2023-01-05T04:21:31.295Z,3.05
2023-01-05T04:23:58.730Z,4.00
2023-01-05T04:26:26.089Z,3.47
2023-01-05T04:28:53.401Z,3.28
2023-01-05T04:31:24.559Z,2.17
2023-01-05T04:33:54.396Z,3.53
2023-01-05T04:36:24.553Z,5.22
2023-01-05T04:38:55.289Z,2.92
2023-01-05T04:41:22.701Z,3.33
2023-01-05T04:43:52.321Z,3.75
2023-01-05T04:46:20.719Z,3.08
2023-01-05T04:48:50.280Z,3.60
2023-01-05T04:51:20.454Z,3.55
2023-01-05T04:53:47.899Z,3.25
2023-01-05T04:58:46.397Z,3.20
2023-01-05T05:01:13.695Z,2.60
2023-01-05T05:03:42.960Z,3.75
2023-01-05T05:06:14.753Z,4.07
2023-01-05T05:08:42.089Z,4.15
2023-01-05T05:11:10.067Z,3.65
2023-01-05T05:13:39.915Z,3.88
2023-01-05T05:16:08.331Z,3.22
2023-01-05T05:18:36.035Z,3.33
2023-01-05T05:21:05.068Z,2.97
2023-01-05T05:23:36.199Z,3.30
2023-01-05T05:26:04.681Z,2.50
2023-01-05T05:28:32.053Z,2.40
2023-01-05T05:30:59.430Z,4.20
2023-01-05T05:33:26.857Z,3.85
2023-01-05T05:35:54.165Z,3.03
2023-01-05T05:38:21.453Z,3.30
2023-01-05T05:40:49.593Z,2.58
2023-01-05T05:43:17.466Z,3.17
2023-01-05T05:45:50.376Z,4.18
2023-01-05T05:48:18.641Z,3.03
2023-01-05T05:50:46.286Z,3.15
2023-01-05T05:53:13.811Z,2.78
2023-01-05T05:55:41.159Z,2.97
2023-01-05T05:58:09.199Z,3.55
2023-01-05T06:00:36.551Z,3.20
2023-01-05T06:03:04.019Z,3.30
2023-01-05T06:05:31.468Z,2.85
2023-01-05T06:07:58.792Z,2.58
2023-01-05T06:10:26.219Z,3.70
2023-01-05T06:12:54.697Z,3.90
2023-01-05T06:15:22.860Z,2.33
2023-01-05T06:17:50.209Z,3.35
2023-01-05T06:20:17.679Z,2.08
2023-01-05T06:22:45.368Z,4.13
2023-01-05T06:25:12.642Z,1.98
2023-01-05T06:27:40.052Z,2.55
2023-01-05T06:30:07.769Z,2.20
2023-01-05T06:32:35.167Z,2.88
2023-01-05T06:35:02.580Z,3.47
2023-01-05T06:37:29.856Z,2.35
2023-01-05T06:39:57.186Z,2.03
2023-01-05T06:42:24.583Z,2.42
2023-01-05T06:44:51.985Z,3.65
2023-01-05T06:47:19.841Z,2.30
2023-01-05T06:49:47.322Z,2.83
2023-01-05T06:52:16.844Z,3.00
2023-01-05T06:54:44.451Z,3.40
2023-01-05T06:57:12.417Z,2.80
2023-01-05T06:59:40.009Z,2.25
2023-01-05T07:02:13.516Z,2.90
2023-01-05T07:04:40.825Z,2.33
2023-01-05T07:07:08.182Z,2.70
2023-01-05T07:09:35.440Z,3.10
2023-01-05T07:12:02.736Z,2.67
2023-01-05T07:14:30.011Z,2.72
2023-01-05T07:16:57.367Z,3.08
2023-01-05T07:19:24.800Z,2.63
2023-01-05T07:21:56.731Z,2.88
2023-01-05T07:24:24.556Z,2.58
2023-01-05T07:26:51.872Z,2.75
2023-01-05T07:29:19.156Z,2.47
2023-01-05T07:31:47.688Z,2.22
2023-01-05T07:34:15.123Z,2.75
2023-01-05T07:36:42.414Z,3.40
2023-01-05T07:39:09.719Z,3.13
2023-01-05T07:41:37.095Z,4.25
2023-01-05T07:44:05.801Z,3.10
2023-01-05T07:46:35.180Z,3.45
2023-01-05T07:49:02.665Z,3.33
2023-01-05T07:51:29.981Z,3.67
2023-01-05T07:53:57.313Z,4.90
2023-01-05T07:56:24.845Z,3.40
2023-01-05T07:58:52.144Z,3.20
2023-01-05T08:01:19.599Z,3.40
2023-01-05T08:03:47.366Z,3.17
2023-01-05T08:06:17.593Z,3.47
2023-01-05T08:08:45.386Z,3.20
2023-01-05T08:11:15.527Z,3.40
2023-01-05T08:14:02.763Z,4.25
2023-01-05T08:16:31.753Z,2.70
2023-01-05T08:18:59.422Z,2.80
2023-01-05T08:21:26.947Z,2.85
2023-01-05T08:23:54.579Z,3.80
2023-01-05T08:26:23.778Z,2.38
2023-01-05T08:28:51.786Z,3.33
2023-01-05T08:31:25.950Z,3.33
2023-01-05T08:34:00.172Z,2.95
2023-01-05T08:36:27.830Z,3.17
2023-01-05T08:38:55.862Z,2.75
2023-01-05T08:41:30.708Z,2.67
2023-01-05T08:44:11.520Z,4.47
2023-01-05T08:46:38.992Z,3.95
2023-01-05T08:49:08.277Z,2.33
2023-01-05T08:51:35.956Z,2.78
2023-01-05T08:54:03.221Z,3.80
2023-01-05T08:56:38.264Z,3.03
2023-01-05T08:59:06.281Z,2.92
2023-01-05T09:01:33.793Z,3.47
2023-01-05T09:04:01.217Z,3.20
2023-01-05T09:06:28.586Z,3.58
2023-01-05T09:08:56.044Z,3.25
2023-01-05T09:11:26.006Z,2.85
2023-01-05T09:14:01.367Z,3.40
2023-01-05T09:19:18.372Z,3.53
2023-01-05T09:21:45.742Z,3.65
2023-01-05T09:24:13.263Z,2.80
2023-01-05T09:26:43.860Z,3.97
2023-01-05T09:29:12.331Z,3.40
2023-01-05T09:31:41.565Z,2.63
2023-01-05T09:34:08.897Z,3.78
2023-01-05T09:36:37.211Z,3.05
2023-01-05T09:39:06.100Z,3.53
2023-01-05T09:41:35.348Z,3.53
2023-01-05T09:44:14.595Z,4.30
2023-01-05T09:46:46.310Z,2.97
2023-01-05T09:49:15.185Z,2.92
2023-01-05T09:51:43.017Z,4.10
2023-01-05T09:54:18.434Z,2.55
2023-01-05T09:59:37.463Z,2.65
2023-01-05T10:02:26.589Z,2.72
2023-01-05T10:04:55.261Z,2.05
2023-01-05T10:07:34.806Z,3.13
2023-01-05T10:10:08.294Z,3.63
2023-01-05T10:13:06.283Z,2.10
2023-01-05T10:15:49.598Z,3.22
2023-01-05T10:18:22.217Z,2.83
2023-01-05T10:20:52.545Z,3.20
2023-01-05T10:26:10.101Z,3.10
2023-01-05T10:28:37.512Z,2.92
2023-01-05T10:31:12.823Z,3.38
2023-01-05T10:34:01.646Z,2.60
2023-01-05T10:37:13.115Z,3.10
2023-01-05T10:39:49.661Z,2.55
2023-01-05T10:42:45.566Z,3.42
2023-01-05T10:45:15.640Z,2.67
2023-01-05T10:47:45.240Z,3.47
2023-01-05T10:50:22.287Z,2.83
2023-01-05T10:52:49.625Z,2.65
2023-01-05T10:55:19.101Z,2.58
2023-01-05T10:57:46.805Z,2.73
2023-01-05T11:00:20.788Z,2.38
2023-01-05T11:02:50.239Z,2.95
2023-01-05T11:05:27.346Z,2.63
2023-01-05T11:07:58.565Z,2.40
2023-01-05T11:10:32.792Z,2.58
2023-01-05T11:13:21.536Z,3.05
2023-01-05T11:19:01.259Z,3.13
2023-01-05T11:24:35.168Z,2.95
2023-01-05T11:27:14.869Z,2.65
2023-01-05T11:29:42.179Z,3.00
2023-01-05T11:32:13.264Z,2.75
2023-01-05T11:34:48.829Z,3.38
2023-01-05T11:37:29.232Z,2.85
2023-01-05T11:42:34.195Z,2.95
2023-01-05T11:45:07.665Z,3.10
2023-01-05T11:47:44.554Z,3.17
2023-01-05T11:50:15.438Z,3.17
2023-01-05T11:52:45.099Z,3.05
2023-01-05T11:55:37.818Z,2.88
2023-01-05T11:58:24.018Z,3.22
2023-01-05T12:01:17.011Z,2.47
2023-01-05T12:04:01.458Z,3.25
2023-01-05T12:06:53.448Z,2.75
2023-01-05T12:09:32.659Z,2.42
2023-01-05T12:12:07.955Z,3.42
2023-01-05T12:15:03.238Z,3.13
2023-01-05T12:17:39.632Z,2.55
2023-01-05T12:20:31.563Z,3.10
2023-01-05T12:22:58.780Z,3.67
2023-01-05T12:25:26.206Z,4.15
2023-01-05T12:27:53.493Z,2.75
2023-01-05T12:34:05.047Z,3.75
2023-01-05T12:36:57.699Z,3.10
2023-01-05T12:39:43.383Z,3.38
2023-01-05T12:42:13.751Z,2.85
2023-01-05T12:47:07.885Z,3.53
2023-01-05T12:49:44.209Z,3.88
2023-01-05T12:52:23.738Z,3.13
2023-01-05T12:54:51.269Z,3.90
2023-01-05T12:57:54.191Z,3.15
2023-01-05T13:00:22.068Z,3.60
2023-01-05T13:03:01.984Z,3.65
2023-01-05T13:05:32.481Z,3.88
2023-01-05T13:10:34.615Z,3.38
2023-01-05T13:13:10.947Z,4.20
2023-01-05T13:15:55.811Z,3.25
2023-01-05T13:18:25.368Z,3.70
2023-01-05T13:21:01.682Z,4.28
2023-01-05T13:23:32.574Z,3.97
2023-01-05T13:26:05.461Z,4.60
2023-01-05T13:29:54.194Z,3.90
2023-01-05T13:35:06.057Z,4.03
2023-01-05T13:37:33.365Z,5.10
2023-01-05T13:40:00.611Z,4.65
2023-01-05T13:42:27.904Z,4.38
2023-01-05T13:45:23.851Z,4.47
2023-01-05T13:48:10.069Z,4.78
2023-01-05T13:50:52.182Z,5.18
2023-01-05T13:56:22.504Z,4.28
2023-01-05T13:58:58.930Z,4.32
2023-01-05T14:01:41.230Z,4.80
2023-01-05T14:04:33.403Z,3.90
2023-01-05T14:07:14.227Z,4.70
2023-01-05T14:09:48.182Z,4.75
2023-01-05T14:12:15.584Z,4.20
2023-01-05T14:15:02.338Z,4.65
2023-01-05T14:17:54.092Z,4.43
2023-01-05T14:20:36.789Z,4.25
2023-01-05T14:23:24.118Z,4.38
2023-01-05T14:25:54.020Z,3.80
2023-01-05T14:28:21.301Z,4.32
2023-01-05T14:30:51.015Z,3.83
2023-01-05T14:33:19.889Z,3.47
2023-01-05T14:35:47.317Z,3.50
2023-01-05T14:38:14.547Z,4.03
2023-01-05T14:40:52.839Z,4.80
2023-01-05T14:43:22.453Z,4.25
2023-01-05T14:46:14.897Z,4.75
2023-01-05T14:49:06.691Z,3.78
2023-01-05T14:51:35.348Z,3.42
2023-01-05T14:54:04.840Z,4.40
2023-01-05T14:56:35.018Z,4.07
2023-01-05T14:59:23.641Z,3.95
2023-01-05T15:02:01.164Z,4.47
2023-01-05T15:04:37.504Z,4.40
2023-01-05T15:07:47.769Z,3.67
2023-01-05T15:10:38.232Z,3.90
2023-01-05T15:16:06.853Z,4.05
2023-01-05T15:18:57.209Z,3.45
2023-01-05T15:24:15.673Z,3.72
2023-01-05T15:27:29.828Z,3.90
2023-01-05T15:30:03.230Z,3.60
2023-01-05T15:32:35.240Z,4.07
2023-01-05T15:35:21.420Z,3.75
2023-01-05T15:37:52.107Z,3.90
2023-01-05T15:40:24.902Z,3.60
2023-01-05T15:42:54.674Z,4.63
2023-01-05T15:45:37.102Z,4.10
2023-01-05T15:48:11.184Z,3.50
2023-01-05T15:50:47.971Z,5.80
2023-01-05T15:53:38.121Z,6.40
2023-01-05T15:56:26.912Z,5.30
2023-01-05T15:58:54.636Z,3.70
2023-01-05T16:01:31.583Z,4.18
2023-01-05T16:04:17.151Z,3.80
2023-01-05T16:06:51.319Z,3.90
2023-01-05T16:09:18.625Z,3.65
2023-01-05T16:12:02.304Z,4.45
2023-01-05T16:14:46.061Z,3.35
2023-01-05T16:17:18.645Z,3.47
2023-01-05T16:19:58.080Z,4.30
2023-01-05T16:22:45.035Z,3.80
2023-01-05T16:25:15.397Z,4.45
2023-01-05T16:30:59.429Z,4.13
2023-01-05T16:33:38.643Z,4.50
2023-01-05T16:39:25.567Z,4.18
2023-01-05T16:42:37.149Z,4.28
2023-01-05T16:45:09.245Z,5.80
2023-01-05T16:47:41.503Z,4.53
2023-01-05T16:50:20.665Z,4.15
2023-01-05T16:53:03.207Z,4.68
2023-01-05T16:55:37.054Z,4.90
2023-01-05T16:58:25.102Z,4.88
2023-01-05T17:00:52.369Z,5.40
2023-01-05T17:03:30.103Z,5.07
2023-01-05T17:05:58.129Z,4.97
2023-01-05T17:08:28.182Z,5.80
2023-01-05T17:13:26.987Z,9.32
2023-01-05T17:15:54.602Z,7.55
2023-01-05T17:18:27.467Z,5.15
2023-01-05T17:20:57.527Z,5.30
2023-01-05T17:23:33.888Z,5.97
2023-01-05T17:26:04.651Z,4.85
2023-01-05T17:28:32.023Z,4.45
2023-01-05T17:30:59.311Z,5.35
2023-01-05T17:33:26.918Z,6.78
2023-01-05T17:35:54.311Z,5.38
2023-01-05T17:38:21.700Z,4.97
2023-01-05T17:40:49.379Z,6.18
2023-01-05T17:43:18.563Z,5.97
2023-01-05T17:45:46.004Z,4.45
2023-01-05T17:48:16.243Z,4.68
2023-01-05T17:50:44.233Z,5.10
2023-01-05T17:53:11.888Z,5.60
2023-01-05T17:55:39.188Z,5.05
2023-01-05T17:58:06.560Z,4.15
2023-01-05T18:00:39.578Z,4.85
2023-01-05T18:03:06.984Z,4.50
2023-01-05T18:05:34.284Z,4.15
2023-01-05T18:08:01.585Z,4.65
2023-01-05T18:10:29.507Z,4.50
2023-01-05T18:12:57.147Z,5.47
2023-01-05T18:17:51.428Z,5.40
2023-01-05T18:20:21.192Z,4.78
2023-01-05T18:22:49.022Z,5.10
2023-01-05T18:25:17.238Z,4.13
2023-01-05T18:27:44.289Z,4.78
2023-01-05T18:30:12.035Z,4.07
2023-01-05T18:32:39.726Z,4.50
2023-01-05T18:35:10.184Z,4.60
2023-01-05T18:37:38.811Z,4.97
2023-01-05T18:40:09.894Z,5.10
2023-01-05T18:42:37.700Z,5.20
2023-01-05T18:45:18.635Z,4.72
2023-01-05T18:47:56.763Z,3.97
2023-01-05T18:50:24.453Z,4.43
2023-01-05T18:52:52.113Z,3.80
2023-01-05T18:55:19.432Z,3.72
2023-01-05T18:57:46.693Z,4.43
2023-01-05T19:00:14.185Z,4.57
2023-01-05T19:02:41.539Z,3.50
2023-01-05T19:05:10.089Z,3.83
2023-01-05T19:07:38.892Z,4.07
2023-01-05T19:10:06.225Z,3.60
2023-01-05T19:12:33.614Z,4.38
2023-01-05T19:15:00.864Z,3.55
2023-01-05T19:17:28.105Z,4.30
2023-01-05T19:19:57.557Z,5.32
2023-01-05T19:22:24.512Z,4.43
2023-01-05T19:24:51.399Z,3.55
2023-01-05T19:27:18.743Z,3.63
2023-01-05T19:29:46.004Z,3.90
2023-01-05T19:32:13.345Z,3.25
2023-01-05T19:34:41.901Z,3.13
2023-01-05T19:37:09.252Z,3.55
2023-01-05T19:39:36.508Z,3.40
2023-01-05T19:42:03.821Z,4.18
2023-01-05T19:44:31.347Z,4.00
2023-01-05T19:46:58.657Z,3.45
2023-01-05T19:49:27.257Z,3.63
2023-01-05T19:51:55.024Z,3.33
2023-01-05T19:54:22.816Z,4.97
2023-01-05T19:56:50.796Z,3.35
2023-01-05T19:59:24.717Z,4.18
2023-01-05T20:01:52.222Z,5.30
2023-01-05T20:04:19.551Z,4.97
2023-01-05T20:06:47.086Z,4.38
2023-01-05T20:09:18.896Z,5.43
2023-01-05T20:11:49.347Z,4.90
2023-01-05T20:14:20.805Z,4.47
2023-01-05T20:16:54.332Z,4.78
2023-01-05T20:19:22.791Z,5.05
2023-01-05T20:21:50.816Z,5.07
2023-01-05T20:24:21.802Z,9.10
2023-01-05T20:26:50.285Z,12.52
2023-01-05T20:29:18.974Z,10.88
2023-01-05T20:31:49.250Z,9.70
2023-01-05T20:34:18.642Z,7.05
2023-01-05T20:36:46.153Z,5.80
2023-01-05T20:39:16.126Z,6.35
2023-01-05T20:41:47.011Z,6.70
2023-01-05T20:44:14.781Z,4.63
2023-01-05T20:46:45.152Z,5.10
2023-01-05T20:51:39.971Z,5.78
2023-01-05T20:54:10.230Z,5.72
2023-01-05T20:59:19.010Z,5.63
2023-01-05T21:01:46.661Z,6.43
2023-01-05T21:04:14.056Z,7.68
2023-01-05T21:06:41.740Z,6.20
2023-01-05T21:09:09.156Z,7.45
2023-01-05T21:11:37.130Z,6.32
2023-01-05T21:14:06.268Z,6.43
2023-01-05T21:16:39.119Z,5.10
2023-01-05T21:19:07.269Z,5.43
2023-01-05T21:21:34.572Z,4.70
2023-01-05T21:24:02.357Z,5.55
2023-01-05T21:26:29.646Z,5.13
2023-01-05T21:28:56.980Z,4.40
2023-01-05T21:31:26.662Z,5.15
2023-01-05T21:33:54.586Z,5.03
2023-01-05T21:36:26.967Z,5.38
2023-01-05T21:39:00.986Z,4.25
2023-01-05T21:41:49.163Z,4.90
2023-01-05T21:44:16.468Z,4.00
2023-01-05T21:46:43.917Z,4.75
2023-01-05T21:49:11.921Z,4.80
2023-01-05T21:51:57.923Z,4.95
2023-01-05T21:54:44.294Z,5.05
2023-01-05T21:57:11.914Z,4.80
2023-01-05T21:59:39.555Z,4.38
2023-01-05T22:02:07.215Z,4.63
2023-01-05T22:04:34.492Z,6.70
2023-01-05T22:07:01.895Z,5.00
2023-01-05T22:09:29.335Z,4.07
2023-01-05T22:11:56.651Z,4.03
2023-01-05T22:14:23.902Z,5.07
2023-01-05T22:16:51.183Z,6.22
2023-01-05T22:19:18.493Z,8.20
2023-01-05T22:21:45.806Z,8.23
2023-01-05T22:24:13.674Z,9.82
2023-01-05T22:26:41.045Z,7.97
2023-01-05T22:29:08.342Z,5.68
2023-01-05T22:31:36.337Z,5.97
2023-01-05T22:34:03.746Z,4.57
2023-01-05T22:36:31.457Z,5.25
2023-01-05T22:38:59.030Z,4.25
2023-01-05T22:41:29.799Z,5.03
2023-01-05T22:43:57.377Z,4.32
2023-01-05T22:46:26.861Z,4.63
2023-01-05T22:48:55.440Z,5.50
2023-01-05T22:51:24.625Z,4.30
2023-01-05T22:53:52.201Z,4.40
2023-01-05T22:56:21.244Z,4.00
2023-01-05T22:58:48.763Z,4.30
2023-01-05T23:01:27.825Z,4.43
2023-01-05T23:03:56.990Z,3.17
2023-01-05T23:06:24.664Z,4.38
2023-01-05T23:08:52.820Z,4.47
2023-01-05T23:11:31.943Z,3.67
2023-01-05T23:14:00.344Z,4.50
2023-01-05T23:16:27.950Z,4.18
2023-01-05T23:18:55.527Z,4.05
2023-01-05T23:21:24.365Z,3.00
2023-01-05T23:23:53.023Z,4.10
2023-01-05T23:26:20.539Z,3.78
2023-01-05T23:28:48.068Z,2.70
2023-01-05T23:31:16.362Z,3.15
2023-01-05T23:33:44.515Z,3.08
2023-01-05T23:36:13.190Z,3.55
2023-01-05T23:38:40.945Z,3.38
2023-01-05T23:41:10.123Z,2.80
2023-01-05T23:43:39.676Z,2.80
2023-01-05T23:46:09.423Z,3.63
2023-01-05T23:48:37.329Z,2.63
2023-01-05T23:51:06.236Z,2.00
2023-01-05T23:53:33.802Z,2.40
2023-01-05T23:56:09.447Z,2.33
2023-01-05T23:58:36.981Z,2.10
